createdAt,value
2022-09-30T00:01:39.668Z,7.74
2022-09-30T00:04:11.057Z,7.91
2022-09-30T00:06:39.160Z,7.99
2022-09-30T00:09:11.266Z,7.89
2022-09-30T00:11:40.066Z,7.70
2022-09-30T00:14:08.929Z,7.70
2022-09-30T00:16:37.929Z,7.86
2022-09-30T00:19:06.090Z,7.79
2022-09-30T00:21:35.533Z,7.78
2022-09-30T00:24:04.643Z,7.71
2022-09-30T00:26:33.021Z,7.74
2022-09-30T00:29:01.516Z,7.86
2022-09-30T00:31:30.895Z,7.76
2022-09-30T00:34:11.299Z,7.69
2022-09-30T00:36:44.423Z,7.66
2022-09-30T00:39:13.789Z,7.55
2022-09-30T00:41:41.795Z,7.52
2022-09-30T00:44:28.262Z,7.64
2022-09-30T00:46:56.910Z,7.43
2022-09-30T00:49:26.240Z,7.36
2022-09-30T00:51:58.575Z,7.24
2022-09-30T00:54:27.678Z,7.55
2022-09-30T00:56:58.083Z,7.66
2022-09-30T00:59:28.327Z,7.42
2022-09-30T01:02:03.481Z,7.57
2022-09-30T01:04:32.419Z,7.53
2022-09-30T01:07:02.694Z,7.37
2022-09-30T01:09:32.954Z,7.56
2022-09-30T01:12:01.184Z,7.64
2022-09-30T01:14:29.474Z,7.36
2022-09-30T01:17:05.171Z,7.69
2022-09-30T01:19:51.994Z,7.54
2022-09-30T01:22:22.923Z,7.44
2022-09-30T01:25:21.047Z,7.46
2022-09-30T01:27:59.879Z,7.23
2022-09-30T01:30:41.405Z,7.46
2022-09-30T01:33:18.056Z,7.49
2022-09-30T01:35:54.469Z,7.44
2022-09-30T01:38:29.284Z,7.34
2022-09-30T01:41:03.557Z,7.63
2022-09-30T01:43:37.812Z,7.20
2022-09-30T01:46:13.383Z,7.47
2022-09-30T01:48:46.780Z,7.70
2022-09-30T01:51:18.687Z,7.64
2022-09-30T01:53:48.214Z,7.57
2022-09-30T01:56:19.496Z,7.52
2022-09-30T01:58:50.342Z,7.52
2022-09-30T02:01:22.973Z,7.55
2022-09-30T02:03:53.970Z,7.94
2022-09-30T02:06:27.303Z,7.83
2022-09-30T02:08:57.648Z,7.84
2022-09-30T02:11:27.631Z,8.16
2022-09-30T02:13:59.419Z,8.05
2022-09-30T02:16:30.396Z,8.07
2022-09-30T02:19:01.094Z,7.87
2022-09-30T02:21:33.471Z,7.77
2022-09-30T02:24:05.588Z,8.00
2022-09-30T02:26:38.653Z,8.10
2022-09-30T02:29:09.140Z,8.54
2022-09-30T02:31:42.618Z,8.63
2022-09-30T02:34:14.523Z,8.38
2022-09-30T02:36:45.882Z,8.16
2022-09-30T02:39:16.758Z,7.86
2022-09-30T02:41:47.180Z,8.03
2022-09-30T02:44:15.599Z,7.98
2022-09-30T02:46:51.441Z,7.85
2022-09-30T02:49:24.133Z,7.87
2022-09-30T02:52:01.285Z,7.74
2022-09-30T02:54:32.612Z,7.97
2022-09-30T02:57:06.954Z,8.26
2022-09-30T02:59:35.141Z,8.08
2022-09-30T03:02:04.580Z,7.77
2022-09-30T03:04:35.732Z,7.82
2022-09-30T03:07:03.742Z,7.88
2022-09-30T03:09:31.755Z,7.92
2022-09-30T03:12:05.877Z,7.83
2022-09-30T03:14:43.335Z,7.92
2022-09-30T03:17:25.275Z,7.59
2022-09-30T03:20:04.968Z,7.47
2022-09-30T03:22:38.521Z,7.55
2022-09-30T03:25:14.384Z,7.33
2022-09-30T03:27:46.027Z,7.52
2022-09-30T03:30:16.829Z,7.36
2022-09-30T03:33:00.662Z,7.51
2022-09-30T03:35:31.975Z,7.03
2022-09-30T03:38:03.452Z,7.15
2022-09-30T03:40:37.342Z,7.26
2022-09-30T03:43:08.359Z,7.01
2022-09-30T03:45:38.487Z,7.19
2022-09-30T03:48:10.103Z,7.67
2022-09-30T03:50:38.601Z,7.78
2022-09-30T03:53:10.847Z,7.55
2022-09-30T03:55:45.069Z,7.51
2022-09-30T03:58:13.974Z,7.14
2022-09-30T04:00:46.916Z,7.38
2022-09-30T04:03:16.302Z,7.08
2022-09-30T04:05:44.571Z,7.43
2022-09-30T04:08:12.592Z,7.52
2022-09-30T04:10:41.431Z,7.46
2022-09-30T04:13:09.786Z,7.86
2022-09-30T04:15:38.180Z,7.66
2022-09-30T04:18:06.541Z,7.71
2022-09-30T04:20:35.884Z,7.27
2022-09-30T04:23:04.631Z,7.22
2022-09-30T04:25:32.590Z,7.31
2022-09-30T04:28:00.616Z,7.35
2022-09-30T04:30:33.586Z,7.57
2022-09-30T04:33:01.800Z,7.06
2022-09-30T04:35:30.203Z,6.80
2022-09-30T04:37:59.603Z,7.10
2022-09-30T04:40:27.598Z,6.84
2022-09-30T04:42:58.109Z,6.90
2022-09-30T04:45:26.466Z,7.04
2022-09-30T04:47:54.599Z,6.98
2022-09-30T04:50:22.691Z,7.22
2022-09-30T04:52:52.769Z,7.07
2022-09-30T04:55:22.094Z,6.86
2022-09-30T04:57:50.672Z,7.08
2022-09-30T05:00:18.830Z,7.39
2022-09-30T05:02:46.803Z,7.44
2022-09-30T05:05:14.934Z,7.56
2022-09-30T05:07:42.906Z,7.73
2022-09-30T05:10:11.636Z,7.70
2022-09-30T05:12:41.306Z,7.74
2022-09-30T05:15:09.886Z,7.28
2022-09-30T05:17:37.875Z,7.80
2022-09-30T05:20:10.684Z,7.54
2022-09-30T05:22:39.210Z,7.66
2022-09-30T05:25:07.758Z,7.65
2022-09-30T05:27:35.752Z,7.72
2022-09-30T05:30:06.510Z,7.67
2022-09-30T05:32:34.535Z,7.73
2022-09-30T05:35:03.506Z,7.61
2022-09-30T05:37:31.547Z,7.55
2022-09-30T05:40:00.739Z,7.49
2022-09-30T05:42:28.724Z,8.09
2022-09-30T05:44:56.679Z,7.82
2022-09-30T05:47:26.124Z,7.77
2022-09-30T05:49:56.140Z,8.22
2022-09-30T05:52:24.314Z,7.92
2022-09-30T05:54:52.358Z,8.03
2022-09-30T05:57:20.968Z,8.23
2022-09-30T05:59:48.954Z,9.01
2022-09-30T06:02:17.100Z,8.07
2022-09-30T06:04:46.614Z,8.26
2022-09-30T06:07:14.853Z,7.90
2022-09-30T06:09:42.938Z,8.11
2022-09-30T06:12:10.958Z,8.09
2022-09-30T06:14:38.944Z,8.08
2022-09-30T06:17:06.943Z,7.87
2022-09-30T06:19:35.109Z,8.16
2022-09-30T06:22:06.515Z,7.82
2022-09-30T06:24:34.523Z,7.53
2022-09-30T06:27:02.572Z,7.87
2022-09-30T06:29:30.569Z,7.74
2022-09-30T06:32:01.541Z,7.96
2022-09-30T06:34:29.683Z,7.67
2022-09-30T06:36:57.831Z,7.67
2022-09-30T06:39:28.152Z,7.74
2022-09-30T06:41:56.375Z,7.90
2022-09-30T06:44:27.326Z,8.00
2022-09-30T06:46:55.705Z,8.02
2022-09-30T06:49:24.014Z,8.07
2022-09-30T06:51:54.606Z,7.72
2022-09-30T06:54:23.592Z,7.87
2022-09-30T06:56:53.818Z,7.94
2022-09-30T06:59:22.893Z,8.31
2022-09-30T07:01:51.268Z,8.18
2022-09-30T07:04:19.411Z,8.11
2022-09-30T07:06:50.159Z,8.14
2022-09-30T07:09:18.409Z,7.92
2022-09-30T07:11:46.455Z,7.64
2022-09-30T07:14:15.922Z,7.62
2022-09-30T07:16:45.262Z,8.07
2022-09-30T07:19:14.569Z,7.52
2022-09-30T07:21:42.619Z,7.46
2022-09-30T07:24:11.604Z,7.81
2022-09-30T07:26:42.026Z,7.62
2022-09-30T07:29:13.268Z,7.64
2022-09-30T07:31:42.690Z,8.00
2022-09-30T07:34:13.040Z,8.79
2022-09-30T07:36:41.754Z,8.15
2022-09-30T07:39:11.019Z,8.75
2022-09-30T07:41:40.037Z,8.84
2022-09-30T07:44:09.878Z,8.91
2022-09-30T07:46:39.047Z,9.21
2022-09-30T07:49:09.453Z,9.59
2022-09-30T07:51:38.516Z,9.23
2022-09-30T07:54:07.802Z,8.98
2022-09-30T07:57:05.174Z,9.48
2022-09-30T07:59:27.223Z,8.37
2022-09-30T08:01:55.489Z,8.19
2022-09-30T08:04:27.584Z,8.25
2022-09-30T08:06:56.515Z,8.54
2022-09-30T08:09:25.837Z,8.97
2022-09-30T08:11:53.996Z,8.80
2022-09-30T08:14:23.299Z,8.31
2022-09-30T08:16:51.720Z,8.68
2022-09-30T08:19:23.948Z,8.23
2022-09-30T08:21:54.127Z,8.47
2022-09-30T08:24:24.770Z,8.95
2022-09-30T08:26:55.660Z,8.47
2022-09-30T08:32:11.795Z,9.32
2022-09-30T08:34:39.836Z,9.05
2022-09-30T08:37:10.145Z,8.88
2022-09-30T08:39:38.484Z,9.41
2022-09-30T08:42:35.483Z,9.04
2022-09-30T08:45:08.484Z,9.21
2022-09-30T08:47:41.765Z,9.11
2022-09-30T08:50:14.052Z,8.85
2022-09-30T08:52:49.043Z,9.50
2022-09-30T08:55:20.027Z,9.75
2022-09-30T08:57:48.352Z,9.02
2022-09-30T09:00:17.335Z,8.83
2022-09-30T09:02:46.919Z,9.10
2022-09-30T09:05:18.764Z,9.16
2022-09-30T09:07:54.310Z,9.15
2022-09-30T09:10:29.348Z,9.20
2022-09-30T09:13:00.014Z,9.80
2022-09-30T09:15:36.101Z,9.35
2022-09-30T09:18:23.297Z,9.48
2022-09-30T09:20:55.559Z,9.36
2022-09-30T09:23:25.487Z,9.79
2022-09-30T09:25:55.657Z,9.88
2022-09-30T09:28:27.025Z,10.15
2022-09-30T09:30:58.398Z,10.31
2022-09-30T09:33:29.802Z,10.36
2022-09-30T09:36:05.789Z,10.78
2022-09-30T09:38:38.944Z,11.61
2022-09-30T09:41:15.601Z,11.75
2022-09-30T09:43:51.976Z,11.48
2022-09-30T09:46:23.699Z,11.09
2022-09-30T09:49:02.759Z,11.13
2022-09-30T09:51:35.120Z,11.14
2022-09-30T09:54:06.050Z,11.66
2022-09-30T09:56:34.581Z,12.22
2022-09-30T09:59:38.243Z,12.22
2022-09-30T10:01:56.434Z,12.21
2022-09-30T10:04:26.420Z,12.48
2022-09-30T10:06:55.712Z,12.29
2022-09-30T10:09:33.032Z,12.84
2022-09-30T10:12:19.878Z,13.21
2022-09-30T10:14:54.133Z,12.81
2022-09-30T10:17:25.671Z,12.76
2022-09-30T10:19:55.034Z,12.67
2022-09-30T10:22:26.489Z,13.12
2022-09-30T10:25:10.209Z,12.88
2022-09-30T10:27:39.045Z,12.69
2022-09-30T10:30:07.623Z,13.21
2022-09-30T10:32:36.782Z,13.03
2022-09-30T10:35:06.928Z,13.08
2022-09-30T10:37:35.034Z,13.22
2022-09-30T10:40:07.519Z,13.74
2022-09-30T10:42:36.793Z,13.37
2022-09-30T10:45:10.065Z,13.68
2022-09-30T10:47:44.642Z,13.69
2022-09-30T10:50:17.126Z,13.55
2022-09-30T10:52:48.375Z,13.59
2022-09-30T10:55:30.269Z,13.96
2022-09-30T10:58:04.979Z,14.41
2022-09-30T11:00:34.688Z,14.61
2022-09-30T11:03:07.038Z,14.47
2022-09-30T11:05:37.082Z,14.05
2022-09-30T11:08:10.188Z,14.40
2022-09-30T11:10:44.273Z,14.20
2022-09-30T11:13:16.952Z,14.49
2022-09-30T11:15:49.715Z,14.79
2022-09-30T11:18:22.848Z,14.27
2022-09-30T11:20:53.989Z,14.24
2022-09-30T11:23:27.370Z,14.38
2022-09-30T11:26:00.610Z,14.54
2022-09-30T11:28:37.474Z,15.06
2022-09-30T11:31:13.951Z,14.40
2022-09-30T11:33:49.611Z,14.70
2022-09-30T11:36:22.255Z,15.17
2022-09-30T11:39:04.763Z,14.87
2022-09-30T11:41:36.845Z,15.02
2022-09-30T11:44:12.316Z,15.29
2022-09-30T11:46:48.180Z,15.48
2022-09-30T11:49:26.108Z,14.80
2022-09-30T11:52:00.124Z,15.06
2022-09-30T11:54:42.093Z,15.18
2022-09-30T11:57:15.713Z,15.35
2022-09-30T11:59:48.579Z,15.25
2022-09-30T12:02:26.580Z,15.41
2022-09-30T12:04:57.823Z,15.29
2022-09-30T12:07:32.196Z,15.01
2022-09-30T12:10:02.278Z,15.03
2022-09-30T12:12:32.596Z,15.09
2022-09-30T12:15:02.185Z,15.43
2022-09-30T12:17:32.919Z,15.34
2022-09-30T12:20:06.505Z,15.42
2022-09-30T12:22:39.392Z,15.04
2022-09-30T12:25:14.778Z,15.17
2022-09-30T12:27:46.845Z,15.60
2022-09-30T12:30:18.476Z,15.51
2022-09-30T12:33:03.988Z,15.50
2022-09-30T12:35:46.963Z,15.52
2022-09-30T12:38:23.928Z,17.20
2022-09-30T12:40:58.177Z,17.25
2022-09-30T12:43:44.164Z,17.91
2022-09-30T12:46:20.502Z,16.14
2022-09-30T12:48:50.168Z,16.06
2022-09-30T12:51:28.144Z,16.45
2022-09-30T12:53:59.432Z,15.59
2022-09-30T12:56:28.701Z,15.43
2022-09-30T12:59:02.187Z,15.58
2022-09-30T13:01:36.937Z,16.06
2022-09-30T13:04:16.460Z,16.05
2022-09-30T13:07:17.919Z,15.53
2022-09-30T13:09:59.933Z,15.73
2022-09-30T13:12:29.390Z,15.82
2022-09-30T13:15:18.225Z,15.66
2022-09-30T13:17:47.738Z,15.65
2022-09-30T13:20:34.287Z,15.71
2022-09-30T13:23:04.426Z,16.04
2022-09-30T13:25:53.530Z,16.37
2022-09-30T13:28:32.122Z,15.84
2022-09-30T13:31:19.148Z,15.36
2022-09-30T13:34:06.437Z,16.18
2022-09-30T13:36:39.900Z,16.05
2022-09-30T13:39:21.014Z,16.25
2022-09-30T13:41:55.107Z,16.94
2022-09-30T13:44:26.779Z,16.17
2022-09-30T13:46:57.758Z,16.74
2022-09-30T13:49:34.277Z,16.09
2022-09-30T13:52:03.523Z,16.11
2022-09-30T13:54:35.126Z,16.22
2022-09-30T13:57:07.214Z,16.76
2022-09-30T13:59:46.561Z,16.85
2022-09-30T14:02:29.489Z,17.07
2022-09-30T14:05:10.304Z,16.59
2022-09-30T14:07:44.011Z,16.84
2022-09-30T14:10:24.946Z,17.07
2022-09-30T14:13:13.082Z,16.94
2022-09-30T14:15:50.263Z,17.39
2022-09-30T14:18:31.494Z,15.55
2022-09-30T14:21:06.540Z,15.78
2022-09-30T14:23:34.527Z,16.22
2022-09-30T14:26:10.916Z,16.55
2022-09-30T14:28:44.284Z,16.99
2022-09-30T14:31:14.646Z,16.75
2022-09-30T14:33:45.268Z,15.98
2022-09-30T14:36:17.072Z,16.69
2022-09-30T14:38:46.748Z,16.02
2022-09-30T14:41:17.503Z,16.07
2022-09-30T14:43:46.649Z,15.72
2022-09-30T14:46:19.672Z,15.61
2022-09-30T14:48:49.707Z,15.75
2022-09-30T14:51:23.585Z,15.90
2022-09-30T14:53:55.973Z,16.12
2022-09-30T14:56:28.203Z,15.71
2022-09-30T14:58:57.724Z,15.32
2022-09-30T15:01:26.760Z,15.65
2022-09-30T15:03:57.714Z,15.62
2022-09-30T15:06:29.203Z,15.27
2022-09-30T15:09:02.063Z,15.33
2022-09-30T15:11:30.099Z,15.60
2022-09-30T15:14:00.439Z,15.46
2022-09-30T15:16:30.212Z,15.73
2022-09-30T15:18:59.111Z,15.90
2022-09-30T15:21:31.354Z,16.20
2022-09-30T15:24:00.616Z,15.93
2022-09-30T15:26:28.943Z,15.87
2022-09-30T15:28:57.203Z,15.50
2022-09-30T15:31:27.494Z,15.81
2022-09-30T15:34:05.926Z,15.98
2022-09-30T15:36:36.840Z,15.42
2022-09-30T15:39:06.065Z,15.53
2022-09-30T15:41:39.927Z,15.57
2022-09-30T15:44:16.657Z,15.42
2022-09-30T15:47:01.428Z,15.42
2022-09-30T15:49:35.268Z,15.54
2022-09-30T15:52:18.116Z,15.21
2022-09-30T15:54:47.854Z,15.42
2022-09-30T15:57:33.921Z,15.46
2022-09-30T16:00:04.641Z,15.60
2022-09-30T16:02:32.634Z,15.49
2022-09-30T16:05:02.783Z,15.57
2022-09-30T16:07:31.946Z,14.95
2022-09-30T16:10:01.310Z,15.14
2022-09-30T16:12:31.363Z,15.39
2022-09-30T16:15:00.591Z,15.19
2022-09-30T16:17:30.326Z,15.04
2022-09-30T16:19:59.251Z,14.99
2022-09-30T16:22:35.154Z,14.92
2022-09-30T16:25:14.027Z,14.73
2022-09-30T16:27:42.080Z,14.75
2022-09-30T16:30:14.303Z,14.52
2022-09-30T16:32:44.139Z,14.57
2022-09-30T16:35:18.649Z,14.57
2022-09-30T16:37:47.415Z,14.47
2022-09-30T16:40:21.347Z,14.41
2022-09-30T16:42:49.642Z,14.27
2022-09-30T16:45:17.938Z,13.80
2022-09-30T16:47:46.114Z,13.79
2022-09-30T16:50:26.360Z,13.73
2022-09-30T16:52:54.483Z,13.28
2022-09-30T16:55:24.291Z,13.03
2022-09-30T16:57:52.398Z,13.01
2022-09-30T17:00:20.468Z,12.90
2022-09-30T17:02:49.309Z,12.74
2022-09-30T17:05:19.544Z,12.51
2022-09-30T17:07:48.467Z,12.40
2022-09-30T17:10:19.134Z,12.31
2022-09-30T17:12:51.170Z,12.33
2022-09-30T17:15:19.643Z,12.29
2022-09-30T17:17:50.362Z,12.22
2022-09-30T17:20:18.471Z,12.12
2022-09-30T17:22:48.920Z,12.28
2022-09-30T17:25:17.602Z,12.05
2022-09-30T17:27:48.748Z,11.91
2022-09-30T17:30:19.102Z,11.76
2022-09-30T17:32:47.509Z,11.57
2022-09-30T17:35:15.574Z,11.57
2022-09-30T17:37:46.416Z,11.37
2022-09-30T17:40:32.219Z,11.45
2022-09-30T17:43:10.852Z,11.40
2022-09-30T17:45:40.997Z,11.29
2022-09-30T17:48:09.434Z,11.27
2022-09-30T17:50:37.681Z,11.20
2022-09-30T17:53:05.897Z,11.13
2022-09-30T17:55:34.623Z,11.19
2022-09-30T17:58:04.950Z,11.08
2022-09-30T18:00:33.545Z,10.92
2022-09-30T18:03:03.247Z,10.75
2022-09-30T18:05:31.892Z,10.62
2022-09-30T18:08:02.123Z,10.59
2022-09-30T18:10:30.157Z,10.76
2022-09-30T18:12:59.616Z,10.85
2022-09-30T18:15:28.145Z,10.61
2022-09-30T18:17:56.146Z,10.31
2022-09-30T18:20:28.062Z,10.14
2022-09-30T18:22:56.136Z,10.23
2022-09-30T18:25:24.112Z,10.60
2022-09-30T18:27:54.413Z,10.48
2022-09-30T18:30:22.478Z,10.36
2022-09-30T18:32:50.749Z,9.99
2022-09-30T18:35:20.350Z,9.99
2022-09-30T18:37:50.459Z,9.81
2022-09-30T18:40:19.072Z,9.82
2022-09-30T18:42:47.349Z,9.83
2022-09-30T18:45:17.645Z,9.99
2022-09-30T18:47:45.786Z,9.93
2022-09-30T18:50:17.031Z,10.22
2022-09-30T18:52:45.181Z,10.26
2022-09-30T18:55:14.569Z,10.00
2022-09-30T18:57:43.052Z,9.78
2022-09-30T19:00:14.246Z,9.86
2022-09-30T19:02:44.298Z,9.41
2022-09-30T19:05:13.365Z,9.51
2022-09-30T19:07:41.444Z,9.50
2022-09-30T19:10:13.227Z,9.39
2022-09-30T19:12:44.449Z,9.32
2022-09-30T19:15:16.202Z,9.41
2022-09-30T19:17:44.319Z,9.46
2022-09-30T19:20:14.061Z,9.70
2022-09-30T19:22:42.211Z,9.97
2022-09-30T19:25:11.629Z,9.78
2022-09-30T19:27:43.464Z,9.90
2022-09-30T19:30:14.746Z,9.79
2022-09-30T19:32:42.825Z,9.68
2022-09-30T19:35:14.146Z,9.86
2022-09-30T19:37:55.119Z,10.00
2022-09-30T19:40:25.684Z,9.90
2022-09-30T19:42:55.075Z,9.95
2022-09-30T19:45:25.727Z,9.95
2022-09-30T19:47:54.369Z,9.73
2022-09-30T19:50:22.380Z,9.73
2022-09-30T19:52:56.817Z,9.66
2022-09-30T19:55:25.350Z,9.52
2022-09-30T19:57:56.795Z,9.56
2022-09-30T20:00:24.802Z,9.56
2022-09-30T20:02:52.849Z,9.68
2022-09-30T20:05:22.454Z,9.76
2022-09-30T20:07:51.240Z,9.55
2022-09-30T20:10:19.700Z,9.54
2022-09-30T20:12:50.184Z,9.44
2022-09-30T20:15:37.410Z,9.32
2022-09-30T20:18:05.807Z,8.89
2022-09-30T20:20:37.187Z,8.85
2022-09-30T20:23:05.434Z,9.13
2022-09-30T20:25:35.109Z,8.69
2022-09-30T20:28:04.348Z,8.88
2022-09-30T20:30:34.414Z,8.77
2022-09-30T20:33:02.874Z,8.64
2022-09-30T20:35:30.869Z,8.41
2022-09-30T20:37:58.914Z,8.79
2022-09-30T20:40:26.900Z,8.97
2022-09-30T20:43:01.496Z,8.77
2022-09-30T20:45:29.979Z,8.74
2022-09-30T20:47:59.486Z,8.84
2022-09-30T20:50:36.404Z,8.74
2022-09-30T20:53:05.468Z,8.27
2022-09-30T20:55:34.748Z,8.21
2022-09-30T20:58:05.499Z,8.26
2022-09-30T21:00:34.361Z,8.31
2022-09-30T21:03:03.921Z,8.08
2022-09-30T21:05:31.983Z,8.11
2022-09-30T21:08:00.495Z,8.04
2022-09-30T21:10:29.668Z,8.36
2022-09-30T21:12:58.983Z,8.10
2022-09-30T21:15:27.654Z,8.05
2022-09-30T21:17:55.901Z,8.31
2022-09-30T21:20:25.259Z,8.16
2022-09-30T21:22:55.597Z,8.08
2022-09-30T21:25:23.593Z,7.92
2022-09-30T21:27:51.672Z,7.87
2022-09-30T21:30:20.187Z,7.90
2022-09-30T21:32:48.817Z,7.62
2022-09-30T21:35:17.167Z,7.79
2022-09-30T21:37:48.993Z,7.66
2022-09-30T21:40:17.066Z,7.64
2022-09-30T21:42:45.104Z,7.64
2022-09-30T21:45:13.058Z,7.74
2022-09-30T21:47:41.059Z,7.81
2022-09-30T21:50:09.437Z,7.88
2022-09-30T21:52:38.037Z,8.13
2022-09-30T21:55:08.075Z,8.26
2022-09-30T21:57:36.095Z,8.14
2022-09-30T22:02:38.056Z,7.74
2022-09-30T22:05:06.443Z,7.82
2022-09-30T22:07:34.875Z,7.63
2022-09-30T22:10:05.362Z,7.51
2022-09-30T22:12:33.512Z,7.51
2022-09-30T22:15:01.618Z,7.61
2022-09-30T22:17:29.647Z,7.73
2022-09-30T22:19:59.653Z,7.63
2022-09-30T22:22:27.649Z,7.52
2022-09-30T22:24:56.866Z,7.68
2022-09-30T22:27:25.653Z,7.74
2022-09-30T22:29:53.661Z,7.71
2022-09-30T22:32:23.699Z,7.46
2022-09-30T22:35:09.346Z,7.71
2022-09-30T22:37:56.039Z,7.72
2022-09-30T22:40:24.414Z,7.73
2022-09-30T22:42:52.963Z,7.79
2022-09-30T22:45:21.030Z,7.69
2022-09-30T22:47:49.002Z,7.53
2022-09-30T22:50:19.551Z,7.82
2022-09-30T22:52:49.473Z,7.75
2022-09-30T22:55:17.567Z,7.78
2022-09-30T22:57:45.519Z,7.69
2022-09-30T23:00:14.803Z,7.83
2022-09-30T23:02:42.854Z,7.54
2022-09-30T23:05:10.855Z,7.32
2022-09-30T23:07:38.818Z,7.74
2022-09-30T23:10:09.422Z,7.76
2022-09-30T23:12:37.421Z,7.44
2022-09-30T23:15:08.362Z,7.35
2022-09-30T23:17:38.518Z,7.52
2022-09-30T23:20:09.039Z,7.28
2022-09-30T23:22:36.990Z,7.26
2022-09-30T23:25:05.264Z,7.68
2022-09-30T23:27:34.713Z,7.91
2022-09-30T23:30:02.664Z,7.50
2022-09-30T23:32:30.616Z,7.23
2022-09-30T23:34:58.628Z,7.22
2022-09-30T23:37:28.899Z,7.32
2022-09-30T23:39:56.877Z,7.29
2022-09-30T23:42:24.917Z,7.64
2022-09-30T23:44:56.393Z,7.66
2022-09-30T23:47:24.461Z,7.33
2022-09-30T23:49:52.376Z,7.29
2022-09-30T23:52:20.653Z,7.32
2022-09-30T23:54:48.744Z,7.35
2022-09-30T23:57:18.838Z,7.51
2022-09-30T23:59:46.772Z,7.21
